sensor_id;sensor_type;location;lat;lon;timestamp;pressure;altitude;pressure_sealevel;temperature;humidity
74372;BME280;62885;51.374;6.170;2023-05-07T00:01:35;101247.03;;;14.91;100.00
74372;BME280;62885;51.374;6.170;2023-05-07T00:04:00;101244.91;;;14.94;100.00
74372;BME280;62885;51.374;6.170;2023-05-07T00:06:26;101248.06;;;14.99;100.00
74372;BME280;62885;51.374;6.170;2023-05-07T00:08:54;101253.53;;;14.88;100.00
74372;BME280;62885;51.374;6.170;2023-05-07T00:11:19;101247.16;;;14.89;100.00
74372;BME280;62885;51.374;6.170;2023-05-07T00:13:44;101247.16;;;14.89;100.00
74372;BME280;62885;51.374;6.170;2023-05-07T00:16:10;101248.88;;;14.90;100.00
74372;BME280;62885;51.374;6.170;2023-05-07T00:18:36;101249.75;;;14.79;100.00
74372;BME280;62885;51.374;6.170;2023-05-07T00:21:01;101257.50;;;14.84;100.00
74372;BME280;62885;51.374;6.170;2023-05-07T00:23:26;101245.97;;;14.82;100.00
74372;BME280;62885;51.374;6.170;2023-05-07T00:25:52;101251.09;;;14.85;100.00
74372;BME280;62885;51.374;6.170;2023-05-07T00:28:17;101247.41;;;14.86;100.00
74372;BME280;62885;51.374;6.170;2023-05-07T00:30:43;101247.56;;;14.85;100.00
74372;BME280;62885;51.374;6.170;2023-05-07T00:33:08;101241.28;;;14.63;100.00
74372;BME280;62885;51.374;6.170;2023-05-07T00:35:33;101237.88;;;14.61;100.00
74372;BME280;62885;51.374;6.170;2023-05-07T00:37:59;101242.78;;;14.56;100.00
74372;BME280;62885;51.374;6.170;2023-05-07T00:40:24;101236.91;;;14.51;100.00
74372;BME280;62885;51.374;6.170;2023-05-07T00:42:49;101234.22;;;14.51;100.00
74372;BME280;62885;51.374;6.170;2023-05-07T00:45:16;101234.22;;;14.51;100.00
74372;BME280;62885;51.374;6.170;2023-05-07T00:47:42;101230.53;;;14.52;100.00
74372;BME280;62885;51.374;6.170;2023-05-07T00:50:08;101225.16;;;14.52;100.00
74372;BME280;62885;51.374;6.170;2023-05-07T00:52:36;101233.13;;;14.54;100.00
74372;BME280;62885;51.374;6.170;2023-05-07T00:55:05;101226.41;;;14.48;100.00
74372;BME280;62885;51.374;6.170;2023-05-07T00:57:40;101227.16;;;14.39;100.00
74372;BME280;62885;51.374;6.170;2023-05-07T01:00:07;101223.25;;;14.43;100.00
74372;BME280;62885;51.374;6.170;2023-05-07T01:02:34;101225.22;;;14.41;100.00
74372;BME280;62885;51.374;6.170;2023-05-07T01:05:00;101220.41;;;14.45;100.00
74372;BME280;62885;51.374;6.170;2023-05-07T01:07:26;101223.31;;;14.53;100.00
74372;BME280;62885;51.374;6.170;2023-05-07T01:09:52;101226.59;;;14.56;100.00
74372;BME280;62885;51.374;6.170;2023-05-07T01:12:18;101224.91;;;14.55;100.00
74372;BME280;62885;51.374;6.170;2023-05-07T01:14:43;101227.63;;;14.55;100.00
74372;BME280;62885;51.374;6.170;2023-05-07T01:17:09;101225.16;;;14.52;100.00
74372;BME280;62885;51.374;6.170;2023-05-07T01:19:34;101216.09;;;14.53;100.00
74372;BME280;62885;51.374;6.170;2023-05-07T01:22:08;101225.78;;;14.56;100.00
74372;BME280;62885;51.374;6.170;2023-05-07T01:24:36;101223.91;;;14.56;100.00
74372;BME280;62885;51.374;6.170;2023-05-07T01:27:01;101234.78;;;14.66;100.00
74372;BME280;62885;51.374;6.170;2023-05-07T01:29:28;101227.56;;;14.66;100.00
74372;BME280;62885;51.374;6.170;2023-05-07T01:31:54;101221.94;;;14.58;100.00
74372;BME280;62885;51.374;6.170;2023-05-07T01:34:22;101228.53;;;14.65;100.00
74372;BME280;62885;51.374;6.170;2023-05-07T01:36:48;101219.13;;;14.60;100.00
74372;BME280;62885;51.374;6.170;2023-05-07T01:39:14;101215.81;;;14.56;100.00
74372;BME280;62885;51.374;6.170;2023-05-07T01:41:41;101216.56;;;14.58;100.00
74372;BME280;62885;51.374;6.170;2023-05-07T01:44:08;101213.13;;;14.56;100.00
74372;BME280;62885;51.374;6.170;2023-05-07T01:46:35;101205.78;;;14.58;100.00
74372;BME280;62885;51.374;6.170;2023-05-07T01:49:00;101203.81;;;14.60;100.00
74372;BME280;62885;51.374;6.170;2023-05-07T01:51:26;101210.19;;;14.59;100.00
74372;BME280;62885;51.374;6.170;2023-05-07T01:53:52;101206.28;;;14.52;100.00
74372;BME280;62885;51.374;6.170;2023-05-07T01:56:18;101202.63;;;14.53;100.00
74372;BME280;62885;51.374;6.170;2023-05-07T01:58:44;101204.97;;;14.47;100.00
74372;BME280;62885;51.374;6.170;2023-05-07T02:01:11;101200.31;;;14.49;100.00
74372;BME280;62885;51.374;6.170;2023-05-07T02:03:36;101201.19;;;14.49;100.00
74372;BME280;62885;51.374;6.170;2023-05-07T02:06:01;101195.34;;;14.44;100.00
74372;BME280;62885;51.374;6.170;2023-05-07T02:08:27;101199.59;;;14.47;100.00
74372;BME280;62885;51.374;6.170;2023-05-07T02:10:52;101198.16;;;14.43;100.00
74372;BME280;62885;51.374;6.170;2023-05-07T02:13:19;101198.00;;;14.33;100.00
74372;BME280;62885;51.374;6.170;2023-05-07T02:15:45;101200.25;;;14.28;100.00
74372;BME280;62885;51.374;6.170;2023-05-07T02:18:15;101203.44;;;14.22;100.00
74372;BME280;62885;51.374;6.170;2023-05-07T02:20:41;101198.06;;;14.22;100.00
74372;BME280;62885;51.374;6.170;2023-05-07T02:23:06;101191.81;;;14.21;100.00
74372;BME280;62885;51.374;6.170;2023-05-07T02:25:31;101191.63;;;14.13;100.00
74372;BME280;62885;51.374;6.170;2023-05-07T02:27:57;101194.91;;;14.17;100.00
74372;BME280;62885;51.374;6.170;2023-05-07T02:30:22;101191.97;;;14.20;100.00
74372;BME280;62885;51.374;6.170;2023-05-07T02:32:48;101198.91;;;14.22;100.00
74372;BME280;62885;51.374;6.170;2023-05-07T02:35:14;101190.84;;;14.22;100.00
74372;BME280;62885;51.374;6.170;2023-05-07T02:37:39;101193.53;;;14.22;100.00
74372;BME280;62885;51.374;6.170;2023-05-07T02:40:05;101191.97;;;14.20;100.00
74372;BME280;62885;51.374;6.170;2023-05-07T02:42:30;101197.84;;;14.14;100.00
74372;BME280;62885;51.374;6.170;2023-05-07T02:44:56;101191.72;;;14.12;100.00
74372;BME280;62885;51.374;6.170;2023-05-07T02:47:21;101195.16;;;14.14;100.00
74372;BME280;62885;51.374;6.170;2023-05-07T02:49:47;101203.47;;;14.11;100.00
74372;BME280;62885;51.374;6.170;2023-05-07T02:52:12;101209.13;;;14.08;100.00
74372;BME280;62885;51.374;6.170;2023-05-07T02:54:38;101211.44;;;14.12;100.00
74372;BME280;62885;51.374;6.170;2023-05-07T02:57:03;101212.53;;;14.10;100.00
74372;BME280;62885;51.374;6.170;2023-05-07T02:59:28;101220.88;;;14.07;100.00
74372;BME280;62885;51.374;6.170;2023-05-07T03:01:54;101214.28;;;13.99;100.00
74372;BME280;62885;51.374;6.170;2023-05-07T03:04:19;101218.56;;;14.02;100.00
74372;BME280;62885;51.374;6.170;2023-05-07T03:06:45;101220.88;;;14.07;100.00
74372;BME280;62885;51.374;6.170;2023-05-07T03:09:10;101214.53;;;14.08;100.00
74372;BME280;62885;51.374;6.170;2023-05-07T03:11:36;101211.34;;;14.03;100.00
74372;BME280;62885;51.374;6.170;2023-05-07T03:14:01;101219.66;;;13.99;100.00
74372;BME280;62885;51.374;6.170;2023-05-07T03:16:27;101212.72;;;13.97;100.00
74372;BME280;62885;51.374;6.170;2023-05-07T03:18:53;101210.16;;;13.95;100.00
74372;BME280;62885;51.374;6.170;2023-05-07T03:21:18;101210.63;;;14.01;100.00
74372;BME280;62885;51.374;6.170;2023-05-07T03:23:43;101201.94;;;13.97;100.00
74372;BME280;62885;51.374;6.170;2023-05-07T03:26:09;101208.94;;;13.88;100.00
74372;BME280;62885;51.374;6.170;2023-05-07T03:28:34;101204.75;;;13.95;100.00
74372;BME280;62885;51.374;6.170;2023-05-07T03:31:00;101198.88;;;14.02;100.00
74372;BME280;62885;51.374;6.170;2023-05-07T03:33:25;101201.94;;;13.97;100.00
74372;BME280;62885;51.374;6.170;2023-05-07T03:35:52;101194.84;;;13.96;100.00
74372;BME280;62885;51.374;6.170;2023-05-07T03:38:17;101195.34;;;13.90;100.00
74372;BME280;62885;51.374;6.170;2023-05-07T03:40:43;101199.38;;;13.95;100.00
74372;BME280;62885;51.374;6.170;2023-05-07T03:43:08;101191.69;;;13.91;100.00
74372;BME280;62885;51.374;6.170;2023-05-07T03:45:34;101189.69;;;13.93;100.00
74372;BME280;62885;51.374;6.170;2023-05-07T03:47:59;101194.38;;;13.91;100.00
74372;BME280;62885;51.374;6.170;2023-05-07T03:50:24;101194.38;;;13.91;100.00
74372;BME280;62885;51.374;6.170;2023-05-07T03:52:50;101189.22;;;13.88;100.00
74372;BME280;62885;51.374;6.170;2023-05-07T03:55:15;101194.97;;;13.94;100.00
74372;BME280;62885;51.374;6.170;2023-05-07T03:57:40;101186.78;;;13.96;100.00
74372;BME280;62885;51.374;6.170;2023-05-07T04:00:06;101201.44;;;13.92;100.00
74372;BME280;62885;51.374;6.170;2023-05-07T04:02:33;101206.00;;;13.91;100.00
74372;BME280;62885;51.374;6.170;2023-05-07T04:04:58;101205.25;;;13.89;100.00
74372;BME280;62885;51.374;6.170;2023-05-07T04:07:23;101209.78;;;13.89;100.00
74372;BME280;62885;51.374;6.170;2023-05-07T04:09:49;101207.56;;;13.94;100.00
74372;BME280;62885;51.374;6.170;2023-05-07T04:12:15;101213.81;;;13.94;100.00
74372;BME280;62885;51.374;6.170;2023-05-07T04:14:40;101216.03;;;13.89;100.00
74372;BME280;62885;51.374;6.170;2023-05-07T04:17:05;101216.41;;;13.85;100.00
74372;BME280;62885;51.374;6.170;2023-05-07T04:19:33;101211.25;;;13.82;100.00
74372;BME280;62885;51.374;6.170;2023-05-07T04:21:58;101214.06;;;13.80;100.00
74372;BME280;62885;51.374;6.170;2023-05-07T04:24:24;101212.97;;;13.83;100.00
74372;BME280;62885;51.374;6.170;2023-05-07T04:26:49;101214.44;;;13.87;100.00
74372;BME280;62885;51.374;6.170;2023-05-07T04:29:16;101214.56;;;13.85;100.00
74372;BME280;62885;51.374;6.170;2023-05-07T04:31:41;101215.44;;;13.86;100.00
74372;BME280;62885;51.374;6.170;2023-05-07T04:34:09;101215.66;;;13.83;100.00
74372;BME280;62885;51.374;6.170;2023-05-07T04:36:37;101207.59;;;13.83;100.00
74372;BME280;62885;51.374;6.170;2023-05-07T04:39:03;101208.06;;;13.88;100.00
74372;BME280;62885;51.374;6.170;2023-05-07T04:41:29;101212.84;;;13.95;100.00
74372;BME280;62885;51.374;6.170;2023-05-07T04:43:54;101212.94;;;13.94;100.00
74372;BME280;62885;51.374;6.170;2023-05-07T04:46:20;101212.34;;;14.02;100.00
74372;BME280;62885;51.374;6.170;2023-05-07T04:48:45;101211.22;;;14.04;100.00
74372;BME280;62885;51.374;6.170;2023-05-07T04:51:11;101218.69;;;14.01;100.00
74372;BME280;62885;51.374;6.170;2023-05-07T04:53:37;101222.59;;;14.08;100.00
74372;BME280;62885;51.374;6.170;2023-05-07T04:56:03;101219.28;;;14.04;100.00
74372;BME280;62885;51.374;6.170;2023-05-07T04:58:28;101224.16;;;14.10;100.00
74372;BME280;62885;51.374;6.170;2023-05-07T05:00:57;101221.44;;;14.21;100.00
74372;BME280;62885;51.374;6.170;2023-05-07T05:03:22;101218.50;;;14.24;100.00
74372;BME280;62885;51.374;6.170;2023-05-07T05:05:49;101223.78;;;14.26;100.00
74372;BME280;62885;51.374;6.170;2023-05-07T05:08:14;101226.94;;;14.31;100.00
74372;BME280;62885;51.374;6.170;2023-05-07T05:10:40;101223.16;;;14.22;100.00
74372;BME280;62885;51.374;6.170;2023-05-07T05:13:06;101221.94;;;14.26;100.00
74372;BME280;62885;51.374;6.170;2023-05-07T05:15:33;101222.88;;;14.36;100.00
74372;BME280;62885;51.374;6.170;2023-05-07T05:17:58;101221.03;;;14.48;100.00
74372;BME280;62885;51.374;6.170;2023-05-07T05:20:23;101229.50;;;14.64;100.00
74372;BME280;62885;51.374;6.170;2023-05-07T05:22:48;101232.22;;;14.85;100.00
74372;BME280;62885;51.374;6.170;2023-05-07T05:25:14;101233.59;;;15.00;99.95
74372;BME280;62885;51.374;6.170;2023-05-07T05:27:39;101230.38;;;15.06;99.93
74372;BME280;62885;51.374;6.170;2023-05-07T05:30:05;101232.97;;;15.38;98.20
74372;BME280;62885;51.374;6.170;2023-05-07T05:32:31;101233.81;;;15.59;96.92
74372;BME280;62885;51.374;6.170;2023-05-07T05:34:56;101242.44;;;15.53;96.33
74372;BME280;62885;51.374;6.170;2023-05-07T05:37:21;101239.34;;;15.58;96.21
74372;BME280;62885;51.374;6.170;2023-05-07T05:39:47;101243.25;;;15.75;95.15
74372;BME280;62885;51.374;6.170;2023-05-07T05:42:12;101242.91;;;16.08;93.25
74372;BME280;62885;51.374;6.170;2023-05-07T05:44:37;101250.00;;;15.99;93.58
74372;BME280;62885;51.374;6.170;2023-05-07T05:47:03;101246.47;;;16.09;92.74
74372;BME280;62885;51.374;6.170;2023-05-07T05:49:28;101249.50;;;15.75;94.42
74372;BME280;62885;51.374;6.170;2023-05-07T05:51:53;101251.22;;;15.76;94.20
74372;BME280;62885;51.374;6.170;2023-05-07T05:54:19;101254.78;;;15.86;93.89
74372;BME280;62885;51.374;6.170;2023-05-07T05:56:44;101250.00;;;15.59;95.26
74372;BME280;62885;51.374;6.170;2023-05-07T05:59:10;101247.47;;;15.37;96.56
74372;BME280;62885;51.374;6.170;2023-05-07T06:01:35;101247.06;;;15.42;96.92
74372;BME280;62885;51.374;6.170;2023-05-07T06:04:00;101249.22;;;15.48;96.67
74372;BME280;62885;51.374;6.170;2023-05-07T06:06:26;101249.22;;;15.48;96.98
74372;BME280;62885;51.374;6.170;2023-05-07T06:08:52;101253.84;;;15.36;97.22
74372;BME280;62885;51.374;6.170;2023-05-07T06:11:17;101261.97;;;15.46;97.01
74372;BME280;62885;51.374;6.170;2023-05-07T06:13:43;101259.63;;;15.52;97.28
74372;BME280;62885;51.374;6.170;2023-05-07T06:16:08;101267.59;;;15.54;96.34
74372;BME280;62885;51.374;6.170;2023-05-07T06:18:33;101268.31;;;15.56;96.85
74372;BME280;62885;51.374;6.170;2023-05-07T06:21:01;101270.31;;;15.54;96.60
74372;BME280;62885;51.374;6.170;2023-05-07T06:23:26;101267.34;;;15.36;97.65
74372;BME280;62885;51.374;6.170;2023-05-07T06:25:52;101263.03;;;15.34;97.72
74372;BME280;62885;51.374;6.170;2023-05-07T06:28:17;101271.75;;;15.37;98.12
74372;BME280;62885;51.374;6.170;2023-05-07T06:30:43;101256.44;;;15.47;98.44
74372;BME280;62885;51.374;6.170;2023-05-07T06:33:08;101267.38;;;15.46;98.06
74372;BME280;62885;51.374;6.170;2023-05-07T06:35:33;101258.25;;;15.58;97.36
74372;BME280;62885;51.374;6.170;2023-05-07T06:37:59;101261.28;;;15.74;96.28
74372;BME280;62885;51.374;6.170;2023-05-07T06:40:25;101260.19;;;15.86;95.92
74372;BME280;62885;51.374;6.170;2023-05-07T06:42:51;101258.84;;;16.11;95.09
74372;BME280;62885;51.374;6.170;2023-05-07T06:45:16;101266.34;;;15.98;94.77
74372;BME280;62885;51.374;6.170;2023-05-07T06:47:42;101262.09;;;16.15;94.11
74372;BME280;62885;51.374;6.170;2023-05-07T06:50:07;101270.09;;;16.26;93.46
74372;BME280;62885;51.374;6.170;2023-05-07T06:52:33;101254.22;;;16.42;93.08
74372;BME280;62885;51.374;6.170;2023-05-07T06:54:59;101263.59;;;16.48;92.45
74372;BME280;62885;51.374;6.170;2023-05-07T06:57:24;101267.31;;;16.47;92.64
74372;BME280;62885;51.374;6.170;2023-05-07T06:59:50;101266.88;;;16.51;92.27
74372;BME280;62885;51.374;6.170;2023-05-07T07:02:15;101272.41;;;16.40;91.20
74372;BME280;62885;51.374;6.170;2023-05-07T07:04:40;101278.00;;;16.67;90.69
74372;BME280;62885;51.374;6.170;2023-05-07T07:07:07;101284.44;;;16.76;90.07
74372;BME280;62885;51.374;6.170;2023-05-07T07:09:32;101285.97;;;16.78;89.81
74372;BME280;62885;51.374;6.170;2023-05-07T07:11:58;101291.09;;;17.01;89.32
74372;BME280;62885;51.374;6.170;2023-05-07T07:14:23;101291.81;;;17.03;88.48
74372;BME280;62885;51.374;6.170;2023-05-07T07:16:48;101295.63;;;17.19;87.58
74372;BME280;62885;51.374;6.170;2023-05-07T07:19:14;101292.47;;;17.34;87.19
74372;BME280;62885;51.374;6.170;2023-05-07T07:21:41;101289.47;;;17.37;87.47
74372;BME280;62885;51.374;6.170;2023-05-07T07:24:06;101287.34;;;17.31;87.76
74372;BME280;62885;51.374;6.170;2023-05-07T07:26:31;101289.34;;;17.19;86.83
74372;BME280;62885;51.374;6.170;2023-05-07T07:28:57;101294.31;;;17.33;86.77
74372;BME280;62885;51.374;6.170;2023-05-07T07:31:22;101306.38;;;17.58;85.32
74372;BME280;62885;51.374;6.170;2023-05-07T07:33:48;101298.06;;;17.22;86.92
74372;BME280;62885;51.374;6.170;2023-05-07T07:36:15;101297.72;;;17.45;86.60
74372;BME280;62885;51.374;6.170;2023-05-07T07:38:43;101307.44;;;17.28;86.09
74372;BME280;62885;51.374;6.170;2023-05-07T07:41:08;101312.47;;;16.94;87.09
74372;BME280;62885;51.374;6.170;2023-05-07T07:43:34;101312.59;;;17.02;87.42
74372;BME280;62885;51.374;6.170;2023-05-07T07:46:00;101308.72;;;17.14;87.20
74372;BME280;62885;51.374;6.170;2023-05-07T07:48:25;101311.41;;;17.24;86.91
74372;BME280;62885;51.374;6.170;2023-05-07T07:50:51;101304.53;;;17.49;86.01
74372;BME280;62885;51.374;6.170;2023-05-07T07:53:17;101303.13;;;17.45;86.10
74372;BME280;62885;51.374;6.170;2023-05-07T07:55:42;101309.94;;;17.49;85.66
74372;BME280;62885;51.374;6.170;2023-05-07T07:58:07;101307.50;;;17.65;85.80
74372;BME280;62885;51.374;6.170;2023-05-07T08:00:33;101310.34;;;17.54;86.05
74372;BME280;62885;51.374;6.170;2023-05-07T08:02:58;101317.53;;;17.45;86.01
74372;BME280;62885;51.374;6.170;2023-05-07T08:05:24;101311.13;;;17.46;86.63
74372;BME280;62885;51.374;6.170;2023-05-07T08:07:50;101312.50;;;17.60;85.93
74372;BME280;62885;51.374;6.170;2023-05-07T08:10:17;101309.94;;;17.68;85.46
74372;BME280;62885;51.374;6.170;2023-05-07T08:12:47;101309.69;;;17.89;84.66
74372;BME280;62885;51.374;6.170;2023-05-07T08:15:13;101312.06;;;18.01;84.37
74372;BME280;62885;51.374;6.170;2023-05-07T08:17:38;101317.41;;;17.84;82.69
74372;BME280;62885;51.374;6.170;2023-05-07T08:20:04;101315.13;;;17.89;82.60
74372;BME280;62885;51.374;6.170;2023-05-07T08:22:29;101319.34;;;18.01;81.88
74372;BME280;62885;51.374;6.170;2023-05-07T08:24:55;101320.66;;;18.24;81.39
74372;BME280;62885;51.374;6.170;2023-05-07T08:27:20;101315.97;;;18.44;80.94
74372;BME280;62885;51.374;6.170;2023-05-07T08:29:45;101313.78;;;18.57;79.69
74372;BME280;62885;51.374;6.170;2023-05-07T08:32:13;101314.78;;;18.56;78.89
74372;BME280;62885;51.374;6.170;2023-05-07T08:34:38;101310.47;;;18.54;79.72
74372;BME280;62885;51.374;6.170;2023-05-07T08:37:04;101313.31;;;18.62;80.14
74372;BME280;62885;51.374;6.170;2023-05-07T08:39:29;101311.47;;;18.62;80.52
74372;BME280;62885;51.374;6.170;2023-05-07T08:41:55;101313.16;;;18.99;79.51
74372;BME280;62885;51.374;6.170;2023-05-07T08:44:26;101321.78;;;18.94;78.55
74372;BME280;62885;51.374;6.170;2023-05-07T08:46:53;101317.59;;;18.82;78.78
74372;BME280;62885;51.374;6.170;2023-05-07T08:49:21;101324.66;;;18.93;78.78
74372;BME280;62885;51.374;6.170;2023-05-07T08:51:46;101323.41;;;18.87;78.29
74372;BME280;62885;51.374;6.170;2023-05-07T08:54:15;101312.25;;;19.34;76.98
74372;BME280;62885;51.374;6.170;2023-05-07T08:56:41;101320.16;;;19.45;75.86
74372;BME280;62885;51.374;6.170;2023-05-07T08:59:06;101323.50;;;19.56;76.35
74372;BME280;62885;51.374;6.170;2023-05-07T09:01:34;101330.31;;;19.60;74.93
74372;BME280;62885;51.374;6.170;2023-05-07T09:04:01;101324.28;;;19.49;74.95
74372;BME280;62885;51.374;6.170;2023-05-07T09:06:26;101327.16;;;19.29;75.84
74372;BME280;62885;51.374;6.170;2023-05-07T09:08:55;101323.97;;;19.52;75.16
74372;BME280;62885;51.374;6.170;2023-05-07T09:11:22;101325.66;;;19.53;74.76
74372;BME280;62885;51.374;6.170;2023-05-07T09:13:48;101330.03;;;19.72;75.28
74372;BME280;62885;51.374;6.170;2023-05-07T09:16:14;101327.53;;;19.52;74.92
74372;BME280;62885;51.374;6.170;2023-05-07T09:18:43;101331.88;;;19.45;73.83
74372;BME280;62885;51.374;6.170;2023-05-07T09:21:11;101333.00;;;19.86;72.53
74372;BME280;62885;51.374;6.170;2023-05-07T09:23:37;101336.28;;;19.90;71.68
74372;BME280;62885;51.374;6.170;2023-05-07T09:26:03;101325.25;;;19.99;72.06
74372;BME280;62885;51.374;6.170;2023-05-07T09:28:29;101323.00;;;19.87;72.63
74372;BME280;62885;51.374;6.170;2023-05-07T09:30:55;101326.81;;;20.02;73.05
74372;BME280;62885;51.374;6.170;2023-05-07T09:33:20;101320.81;;;19.90;72.79
74372;BME280;62885;51.374;6.170;2023-05-07T09:35:47;101319.84;;;19.99;72.68
74372;BME280;62885;51.374;6.170;2023-05-07T09:38:18;101314.28;;;20.09;73.41
74372;BME280;62885;51.374;6.170;2023-05-07T09:40:44;101317.25;;;19.98;72.30
74372;BME280;62885;51.374;6.170;2023-05-07T09:43:11;101320.88;;;20.06;71.63
74372;BME280;62885;51.374;6.170;2023-05-07T09:45:37;101315.59;;;20.05;71.97
74372;BME280;62885;51.374;6.170;2023-05-07T09:48:05;101315.66;;;20.21;71.35
74372;BME280;62885;51.374;6.170;2023-05-07T09:50:43;101318.69;;;20.10;70.72
74372;BME280;62885;51.374;6.170;2023-05-07T09:53:10;101320.44;;;20.19;71.21
74372;BME280;62885;51.374;6.170;2023-05-07T09:55:37;101312.59;;;20.58;69.57
74372;BME280;62885;51.374;6.170;2023-05-07T09:58:04;101317.25;;;20.90;68.53
74372;BME280;62885;51.374;6.170;2023-05-07T10:00:31;101316.19;;;20.75;68.18
74372;BME280;62885;51.374;6.170;2023-05-07T10:02:57;101314.47;;;20.58;67.30
74372;BME280;62885;51.374;6.170;2023-05-07T10:05:23;101313.59;;;20.57;67.35
74372;BME280;62885;51.374;6.170;2023-05-07T10:07:50;101315.53;;;20.97;65.50
74372;BME280;62885;51.374;6.170;2023-05-07T10:10:17;101321.00;;;21.05;65.76
74372;BME280;62885;51.374;6.170;2023-05-07T10:12:43;101314.84;;;20.87;67.94
74372;BME280;62885;51.374;6.170;2023-05-07T10:15:09;101321.50;;;20.92;67.13
74372;BME280;62885;51.374;6.170;2023-05-07T10:17:39;101314.88;;;20.95;66.20
74372;BME280;62885;51.374;6.170;2023-05-07T10:20:06;101315.19;;;20.76;65.51
74372;BME280;62885;51.374;6.170;2023-05-07T10:22:41;101320.13;;;20.80;64.75
74372;BME280;62885;51.374;6.170;2023-05-07T10:25:16;101310.25;;;20.87;60.99
74372;BME280;62885;51.374;6.170;2023-05-07T10:27:43;101318.44;;;20.87;59.66
74372;BME280;62885;51.374;6.170;2023-05-07T10:32:53;101317.09;;;21.16;56.83
74372;BME280;62885;51.374;6.170;2023-05-07T10:35:23;101319.66;;;21.34;57.77
74372;BME280;62885;51.374;6.170;2023-05-07T10:37:50;101324.09;;;21.43;57.08
74372;BME280;62885;51.374;6.170;2023-05-07T10:40:15;101324.91;;;21.59;56.45
74372;BME280;62885;51.374;6.170;2023-05-07T10:45:21;101321.00;;;21.38;56.67
74372;BME280;62885;51.374;6.170;2023-05-07T10:48:06;101325.53;;;21.86;56.27
74372;BME280;62885;51.374;6.170;2023-05-07T10:50:33;101326.00;;;22.05;54.84
74372;BME280;62885;51.374;6.170;2023-05-07T10:55:50;101336.06;;;22.44;53.85
74372;BME280;62885;51.374;6.170;2023-05-07T10:58:26;101333.78;;;22.25;54.52
74372;BME280;62885;51.374;6.170;2023-05-07T11:01:02;101329.22;;;22.17;55.75
74372;BME280;62885;51.374;6.170;2023-05-07T11:03:28;101332.56;;;21.64;58.18
74372;BME280;62885;51.374;6.170;2023-05-07T11:06:23;101318.41;;;21.77;58.68
74372;BME280;62885;51.374;6.170;2023-05-07T11:08:55;101313.69;;;21.54;59.28
74372;BME280;62885;51.374;6.170;2023-05-07T11:11:49;101317.06;;;21.56;59.48
74372;BME280;62885;51.374;6.170;2023-05-07T11:17:08;101317.09;;;21.48;59.12
74372;BME280;62885;51.374;6.170;2023-05-07T11:19:54;101320.25;;;21.84;58.33
74372;BME280;62885;51.374;6.170;2023-05-07T11:25:02;101320.97;;;21.70;57.89
74372;BME280;62885;51.374;6.170;2023-05-07T11:27:28;101314.88;;;22.15;57.35
74372;BME280;62885;51.374;6.170;2023-05-07T11:29:54;101321.88;;;22.48;56.18
74372;BME280;62885;51.374;6.170;2023-05-07T11:32:23;101321.94;;;22.40;55.50
74372;BME280;62885;51.374;6.170;2023-05-07T11:34:53;101328.91;;;22.12;55.70
74372;BME280;62885;51.374;6.170;2023-05-07T11:37:19;101328.47;;;21.76;57.21
74372;BME280;62885;51.374;6.170;2023-05-07T11:39:45;101322.66;;;21.95;56.69
74372;BME280;62885;51.374;6.170;2023-05-07T11:42:35;101323.38;;;21.57;57.07
74372;BME280;62885;51.374;6.170;2023-05-07T11:45:03;101323.50;;;21.80;56.80
74372;BME280;62885;51.374;6.170;2023-05-07T11:47:32;101324.22;;;21.49;57.67
74372;BME280;62885;51.374;6.170;2023-05-07T11:50:03;101329.69;;;21.49;58.05
74372;BME280;62885;51.374;6.170;2023-05-07T11:52:28;101331.50;;;21.73;57.40
74372;BME280;62885;51.374;6.170;2023-05-07T11:54:56;101331.19;;;21.68;57.56
74372;BME280;62885;51.374;6.170;2023-05-07T11:57:23;101333.88;;;21.84;57.06
74372;BME280;62885;51.374;6.170;2023-05-07T11:59:59;101340.66;;;22.13;56.17
74372;BME280;62885;51.374;6.170;2023-05-07T12:02:25;101340.13;;;22.17;55.82
74372;BME280;62885;51.374;6.170;2023-05-07T12:04:54;101336.84;;;21.66;56.32
74372;BME280;62885;51.374;6.170;2023-05-07T12:07:20;101338.34;;;21.61;55.96
74372;BME280;62885;51.374;6.170;2023-05-07T12:09:46;101335.13;;;21.49;55.52
74372;BME280;62885;51.374;6.170;2023-05-07T12:12:13;101339.88;;;21.71;54.82
74372;BME280;62885;51.374;6.170;2023-05-07T12:14:44;101340.75;;;22.27;54.32
74372;BME280;62885;51.374;6.170;2023-05-07T12:17:11;101340.59;;;22.21;52.92
74372;BME280;62885;51.374;6.170;2023-05-07T12:19:38;101340.53;;;22.37;52.33
74372;BME280;62885;51.374;6.170;2023-05-07T12:22:04;101344.69;;;22.56;51.74
74372;BME280;62885;51.374;6.170;2023-05-07T12:27:09;101340.13;;;22.87;50.89
74372;BME280;62885;51.374;6.170;2023-05-07T12:29:34;101334.88;;;22.46;49.34
74372;BME280;62885;51.374;6.170;2023-05-07T12:31:59;101336.78;;;22.69;49.64
74372;BME280;62885;51.374;6.170;2023-05-07T12:34:25;101344.47;;;22.73;50.22
74372;BME280;62885;51.374;6.170;2023-05-07T12:36:50;101343.09;;;22.69;50.94
74372;BME280;62885;51.374;6.170;2023-05-07T12:39:15;101348.81;;;22.51;50.40
74372;BME280;62885;51.374;6.170;2023-05-07T12:44:22;101350.03;;;22.10;51.24
74372;BME280;62885;51.374;6.170;2023-05-07T12:46:47;101349.97;;;22.26;50.50
74372;BME280;62885;51.374;6.170;2023-05-07T12:49:13;101354.00;;;22.38;50.64
74372;BME280;62885;51.374;6.170;2023-05-07T12:51:38;101351.38;;;22.14;52.11
74372;BME280;62885;51.374;6.170;2023-05-07T12:54:04;101362.09;;;22.24;52.43
74372;BME280;62885;51.374;6.170;2023-05-07T12:56:35;101354.06;;;22.22;52.39
74372;BME280;62885;51.374;6.170;2023-05-07T12:59:01;101354.31;;;21.96;52.97
74372;BME280;62885;51.374;6.170;2023-05-07T13:01:30;101364.53;;;22.10;53.31